Time;durP1;ratioP1;P1;durP2;ratioP2;P2;SDS_P1;SDS_P2;PMS_P1;PMS_P2;Temp;Humidity;BMP_temperature;BMP_pressure;BME280_temperature;BME280_humidity;BME280_pressure;Samples;Min_cycle;Max_cycle;Signal;HPM_P1;HPM_P2
2023/04/10 00:01:22;;;;;;;8.90;7.65;;;;;;;6.26;100.00;100796.19;10332308;28;20428;-72
2023/04/10 00:06:23;;;;;;;11.20;8.68;;;;;;;6.09;100.00;100747.47;10332135;28;20068;-72
2023/04/10 00:11:25;;;;;;;10.50;7.38;;;;;;;6.07;100.00;100775.75;10332013;28;20073;-72
2023/04/10 00:16:26;;;;;;;15.07;7.35;;;;;;;6.18;100.00;100791.53;10332127;28;20121;-72
2023/04/10 00:21:27;;;;;;;8.35;6.75;;;;;;;6.22;100.00;100790.31;10330972;28;20125;-72
2023/04/10 00:26:27;;;;;;;6.70;5.80;;;;;;;6.19;100.00;100777.38;10332292;28;20030;-72
2023/04/10 00:31:30;;;;;;;8.23;6.43;;;;;;;6.01;100.00;100765.72;10347019;28;20100;-72
2023/04/10 00:36:31;;;;;;;8.90;6.80;;;;;;;5.93;100.00;100761.13;10331605;28;20065;-72
2023/04/10 00:41:33;;;;;;;15.82;7.45;;;;;;;5.89;100.00;100767.56;10331427;28;20043;-72
2023/04/10 00:46:37;;;;;;;7.93;6.47;;;;;;;5.96;100.00;100783.75;10330553;28;20065;-72
2023/04/10 00:51:38;;;;;;;24.90;7.93;;;;;;;6.03;100.00;100795.47;10330010;28;20092;-72
2023/04/10 00:56:39;;;;;;;192.15;11.30;;;;;;;5.68;100.00;100728.84;10331279;28;20192;-72
2023/04/10 01:01:40;;;;;;;60.53;9.93;;;;;;;6.18;100.00;100799.44;10332310;28;20043;-72
2023/04/10 01:07:00;;;;;;;81.65;9.57;;;;;;;6.22;100.00;100800.84;10337498;28;20038;-72
2023/04/10 01:12:43;;;;;;;42.75;7.68;;;;;;;6.16;100.00;100790.81;10338387;28;20038;-73
2023/04/10 01:18:07;;;;;;;47.58;8.73;;;;;;;5.39;100.00;100707.53;10338345;28;20046;-72
2023/04/10 01:23:29;;;;;;;19.60;7.18;;;;;;;5.78;100.00;100810.63;10353330;28;20122;-73
2023/04/10 01:28:59;;;;;;;49.50;8.68;;;;;;;5.72;100.00;100803.22;10337987;28;20034;-72
2023/04/10 01:34:18;;;;;;;70.43;9.02;;;;;;;5.60;100.00;100805.06;10352622;28;20397;-72
2023/04/10 01:39:21;;;;;;;32.25;10.13;;;;;;;5.36;100.00;100765.72;10343937;28;20041;-72
2023/04/10 01:44:29;;;;;;;20.33;10.02;;;;;;;5.68;100.00;100801.78;10340983;28;20061;-72
2023/04/10 01:49:31;;;;;;;69.22;9.98;;;;;;;5.57;100.00;100763.16;10336593;28;20042;-72
2023/04/10 01:54:34;;;;;;;139.07;12.13;;;;;;;5.52;100.00;100767.13;10335386;28;20050;-73
2023/04/10 01:59:37;;;;;;;85.63;9.82;;;;;;;5.69;100.00;100804.31;10336439;28;20058;-72
2023/04/10 02:04:38;;;;;;;64.93;9.48;;;;;;;5.69;100.00;100803.50;10336008;28;20057;-72
2023/04/10 02:10:03;;;;;;;357.15;15.60;;;;;;;5.69;100.00;100790.31;10336240;28;20045;-72
2023/04/10 02:15:06;;;;;;;147.98;14.65;;;;;;;5.54;100.00;100788.94;10335419;28;20046;-72
2023/04/10 02:20:08;;;;;;;274.52;14.25;;;;;;;5.10;100.00;100727.47;10335352;28;20479;-72
2023/04/10 02:25:09;;;;;;;113.35;11.38;;;;;;;5.46;100.00;100802.72;10335402;28;20096;-72
2023/04/10 02:30:10;;;;;;;75.45;10.82;;;;;;;5.36;100.00;100780.72;10335891;28;20034;-72
2023/04/10 02:35:11;;;;;;;55.25;8.25;;;;;;;5.35;100.00;100806.19;10335242;28;20046;-72
2023/04/10 02:40:13;;;;;;;151.52;12.43;;;;;;;5.25;100.00;100787.66;10334558;28;20049;-71
2023/04/10 02:45:14;;;;;;;116.55;10.18;;;;;;;4.92;100.00;100722.72;10344278;28;20405;-72
2023/04/10 02:50:16;;;;;;;97.70;9.18;;;;;;;5.46;100.00;100803.53;10334923;28;20044;-70
2023/04/10 02:55:17;;;;;;;97.70;9.45;;;;;;;5.30;100.00;100804.91;10339322;28;20133;-73
2023/04/10 03:00:18;;;;;;;69.72;8.02;;;;;;;5.38;100.00;100805.94;10375407;28;20144;-72
2023/04/10 03:05:19;;;;;;;144.05;10.20;;;;;;;5.42;100.00;100796.84;10351312;28;20531;-79
2023/04/10 03:10:20;;;;;;;114.30;8.07;;;;;;;5.56;100.00;100805.44;10333620;28;20165;-79
2023/04/10 03:15:21;;;;;;;101.70;7.40;;;;;;;4.93;100.00;100694.59;10334040;28;20038;-79
2023/04/10 03:20:22;;;;;;;53.92;6.05;;;;;;;5.51;100.00;100774.19;10333760;28;20133;-79
2023/04/10 03:25:22;;;;;;;27.48;5.25;;;;;;;4.99;100.00;100658.06;10332065;28;20068;-78
2023/04/10 03:30:23;;;;;;;7.30;4.70;;;;;;;6.21;100.00;100830.84;10333381;28;20046;-78
2023/04/10 03:35:24;;;;;;;19.08;5.47;;;;;;;6.46;100.00;100820.88;10333468;28;20050;-78
2023/04/10 03:40:24;;;;;;;40.28;5.68;;;;;;;6.61;100.00;100794.03;10313767;28;20060;-75
2023/04/10 03:45:25;;;;;;;5.22;4.70;;;;;;;7.22;100.00;100827.50;10348932;28;20557;-76
2023/04/10 03:50:26;;;;;;;5.78;3.90;;;;;;;8.26;99.24;100837.63;10354161;28;20053;-74
2023/04/10 03:55:27;;;;;;;9.93;4.00;;;;;;;9.47;96.97;100842.13;10332022;28;20065;-74
2023/04/10 04:00:28;;;;;;;6.70;3.90;;;;;;;10.01;94.70;100776.66;10352114;28;20094;-74
2023/04/10 04:05:29;;;;;;;7.63;3.80;;;;;;;11.11;91.93;100826.50;10348938;28;20048;-75
2023/04/10 04:10:30;;;;;;;8.00;4.15;;;;;;;11.75;89.48;100837.50;10330949;28;20549;-76
2023/04/10 04:15:31;;;;;;;5.53;3.08;;;;;;;12.40;87.22;100830.59;10350588;28;20054;-81
2023/04/10 04:20:31;;;;;;;14.52;3.33;;;;;;;12.91;85.54;100837.31;10331834;28;20047;-83
2023/04/10 04:25:32;;;;;;;6.53;3.65;;;;;;;11.87;84.18;100710.28;10331566;28;20053;-76
2023/04/10 04:30:33;;;;;;;7.20;3.60;;;;;;;12.88;83.28;100847.50;10330853;28;20057;-78
2023/04/10 04:35:34;;;;;;;5.43;3.20;;;;;;;13.06;81.25;100842.78;10331430;28;20054;-76
2023/04/10 04:40:34;;;;;;;6.97;4.10;;;;;;;12.64;80.10;100803.91;10338075;28;20064;-83
2023/04/10 04:45:35;;;;;;;5.28;3.60;;;;;;;12.83;79.31;100840.00;10354538;28;20057;-77
2023/04/10 04:50:39;;;;;;;6.35;3.60;;;;;;;12.39;77.74;100784.47;10334592;28;20053;-76
2023/04/10 04:55:41;;;;;;;6.05;4.10;;;;;;;12.33;79.17;100817.13;10375026;28;20049;-76
2023/04/10 05:00:41;;;;;;;6.15;4.22;;;;;;;11.69;79.02;100749.50;10342771;28;20486;-76
2023/04/10 05:05:43;;;;;;;6.20;4.10;;;;;;;12.20;78.84;100817.59;10337866;28;20054;-76
2023/04/10 05:10:44;;;;;;;7.03;3.78;;;;;;;12.33;78.88;100833.94;10338469;28;20188;-76
2023/04/10 05:15:45;;;;;;;7.32;3.78;;;;;;;12.15;78.96;100787.19;10338587;28;20454;-76
2023/04/10 05:20:46;;;;;;;5.68;3.83;;;;;;;12.26;79.27;100760.16;10337797;28;20038;-76
2023/04/10 05:25:47;;;;;;;7.95;3.85;;;;;;;12.86;78.62;100833.50;10337855;28;20070;-76
2023/04/10 05:30:47;;;;;;;8.85;3.92;;;;;;;13.15;78.20;100825.75;10337159;28;20125;-76
2023/04/10 05:35:48;;;;;;;9.63;4.38;;;;;;;12.64;77.08;100723.13;10337730;28;20108;-77
2023/04/10 05:40:49;;;;;;;11.13;4.70;;;;;;;13.19;77.39;100805.72;10336768;28;20057;-76
2023/04/10 05:45:50;;;;;;;9.13;4.85;;;;;;;13.11;76.77;100731.06;10336975;28;20090;-76
2023/04/10 05:50:51;;;;;;;11.70;4.90;;;;;;;14.00;76.04;100779.56;10336043;28;20046;-76
2023/04/10 05:55:53;;;;;;;14.75;4.47;;;;;;;14.70;75.31;100783.75;10336603;28;20057;-76
2023/04/10 06:00:55;;;;;;;6.15;4.20;;;;;;;15.03;74.56;100768.13;10336261;28;20502;-76
2023/04/10 06:05:56;;;;;;;13.30;3.90;;;;;;;15.38;73.51;100776.38;10336334;28;20467;-77
2023/04/10 06:10:57;;;;;;;10.25;4.50;;;;;;;15.80;73.48;100787.34;10335760;28;20499;-76
2023/04/10 06:15:58;;;;;;;7.53;3.50;;;;;;;15.35;72.71;100685.75;10335529;28;20050;-76
2023/04/10 06:21:00;;;;;;;6.00;3.35;;;;;;;16.26;72.32;100776.19;10335732;28;20038;-77
2023/04/10 06:26:02;;;;;;;10.77;3.47;;;;;;;16.48;71.25;100768.91;10335847;28;20507;-76
2023/04/10 06:31:06;;;;;;;6.88;3.45;;;;;;;17.00;71.67;100768.41;10335699;28;20046;-77
2023/04/10 06:36:07;;;;;;;8.48;3.42;;;;;;;17.34;70.61;100743.34;10335375;28;20042;-77
2023/04/10 06:41:08;;;;;;;7.38;3.55;;;;;;;17.51;69.31;100759.91;10335205;28;20038;-76
2023/04/10 06:46:09;;;;;;;6.93;3.33;;;;;;;17.69;68.23;100750.44;10335098;28;20470;-76
2023/04/10 06:51:10;;;;;;;9.93;3.30;;;;;;;18.27;66.88;100726.47;10335277;28;20034;-76
2023/04/10 06:56:10;;;;;;;10.40;3.15;;;;;;;18.40;63.11;100702.25;10333995;28;20066;-77
2023/04/10 07:01:11;;;;;;;9.80;3.13;;;;;;;18.56;61.96;100676.75;10333732;28;20521;-78
2023/04/10 07:06:12;;;;;;;7.80;3.22;;;;;;;18.55;60.66;100642.81;10313543;28;20058;-78
2023/04/10 07:11:13;;;;;;;8.15;3.13;;;;;;;19.15;59.43;100717.94;10293967;28;20039;-78
2023/04/10 07:16:13;;;;;;;7.22;3.10;;;;;;;18.83;57.82;100672.13;10292940;28;20042;-78
2023/04/10 07:21:16;;;;;;;8.75;3.28;;;;;;;19.26;58.24;100700.25;10292866;28;20109;-79
2023/04/10 07:26:16;;;;;;;8.93;3.15;;;;;;;19.03;57.69;100626.25;10292741;28;20043;-78
2023/04/10 07:31:17;;;;;;;10.27;3.33;;;;;;;19.03;55.33;100614.66;10292553;28;20095;-78
2023/04/10 07:36:18;;;;;;;7.15;3.35;;;;;;;19.38;56.28;100696.69;10292964;28;20069;-78
2023/04/10 07:41:19;;;;;;;16.90;3.67;;;;;;;19.57;56.69;100691.34;10292787;28;20047;-76
2023/04/10 07:46:20;;;;;;;8.48;3.25;;;;;;;19.51;55.53;100641.03;10293172;28;20125;-79
2023/04/10 07:51:21;;;;;;;8.73;3.10;;;;;;;19.33;54.84;100613.00;10292028;28;20050;-78
2023/04/10 07:56:22;;;;;;;16.58;3.22;;;;;;;19.18;54.58;100599.03;10292406;28;20067;-77
2023/04/10 08:01:23;;;;;;;5.82;2.90;;;;;;;19.58;53.53;100676.84;10291550;28;20034;-78
2023/04/10 08:06:23;;;;;;;7.53;2.70;;;;;;;19.12;53.33;100572.97;10291343;28;20053;-78
2023/04/10 08:11:28;;;;;;;11.63;3.25;;;;;;;19.41;51.16;100644.19;10290873;28;20042;-77
2023/04/10 08:16:30;;;;;;;6.32;3.05;;;;;;;19.51;52.38;100611.41;10291506;28;20051;-78
2023/04/10 08:21:31;;;;;;;10.40;3.55;;;;;;;19.76;51.83;100625.69;10291862;28;20035;-77
2023/04/10 08:26:32;;;;;;;7.85;2.90;;;;;;;19.93;51.78;100633.25;10291046;28;20047;-78
2023/04/10 08:31:33;;;;;;;8.07;3.47;;;;;;;19.53;51.28;100555.41;10291513;28;20483;-78
2023/04/10 08:36:33;;;;;;;9.38;3.58;;;;;;;19.77;51.55;100559.97;10291221;28;20046;-76
2023/04/10 08:41:34;;;;;;;10.75;3.85;;;;;;;20.12;51.94;100605.22;10292177;28;20039;-77
2023/04/10 08:46:36;;;;;;;11.38;3.58;;;;;;;20.25;51.76;100588.06;10291273;28;20490;-79
2023/04/10 08:51:50;;;;;;;6.85;3.25;;;;;;;20.57;51.41;100614.91;10291217;28;20045;-80
2023/04/10 08:56:53;;;;;;;8.75;3.28;;;;;;;20.44;49.91;100526.81;10291281;28;20133;-78
2023/04/10 09:01:54;;;;;;;6.77;3.20;;;;;;;20.75;49.79;100590.56;10291190;28;20410;-78
2023/04/10 09:06:55;;;;;;;6.95;2.75;;;;;;;20.39;49.49;100556.34;10290662;28;20090;-78
2023/04/10 09:11:59;;;;;;;7.95;2.72;;;;;;;20.47;49.97;100562.25;10290259;28;20471;-78
2023/04/10 09:17:24;;;;;;;9.88;2.95;;;;;;;20.72;48.07;100555.94;10290043;28;20050;-78
2023/04/10 09:22:33;;;;;;;13.65;2.80;;;;;;;20.29;47.07;100498.38;10290668;28;20090;-78
2023/04/10 09:27:36;;;;;;;9.30;3.35;;;;;;;20.29;46.93;100478.66;10297819;28;20569;-78
2023/04/10 09:32:43;;;;;;;6.78;3.00;;;;;;;20.63;45.67;100546.50;10297551;28;20043;-80
2023/04/10 09:37:45;;;;;;;9.23;3.03;;;;;;;20.49;46.56;100546.66;10296952;28;20070;-79
2023/04/10 09:42:46;;;;;;;10.60;2.90;;;;;;;20.24;46.18;100557.56;10297694;28;20090;-79
2023/04/10 09:48:19;;;;;;;9.40;2.75;;;;;;;20.14;47.70;100553.78;10296502;28;20093;-79
2023/04/10 09:53:20;;;;;;;9.27;2.83;;;;;;;19.76;47.75;100538.63;10284839;28;20063;-79
2023/04/10 09:58:24;;;;;;;11.30;3.15;;;;;;;20.15;46.97;100534.66;10296997;28;20058;-79
2023/04/10 10:03:25;;;;;;;8.05;2.97;;;;;;;19.84;45.27;100522.97;10295900;28;20035;-78
2023/04/10 10:08:26;;;;;;;10.65;3.08;;;;;;;20.09;46.80;100543.63;10296910;28;20078;-79
2023/04/10 10:13:34;;;;;;;11.00;2.97;;;;;;;19.95;45.78;100544.84;10295499;28;20047;-79
2023/04/10 10:18:53;;;;;;;9.75;3.25;;;;;;;20.05;46.00;100529.78;10296370;28;20042;-78
2023/04/10 10:23:57;;;;;;;8.63;3.00;;;;;;;19.94;45.65;100549.41;10295157;28;20519;-81
2023/04/10 10:29:05;;;;;;;9.25;2.80;;;;;;;19.79;45.47;100468.91;10294746;28;20046;-79
2023/04/10 10:34:07;;;;;;;8.27;2.28;;;;;;;20.33;45.20;100508.69;10294620;28;20053;-79
2023/04/10 10:39:37;;;;;;;18.88;2.70;;;;;;;20.71;43.21;100527.28;10294796;28;20454;-79
2023/04/10 10:44:49;;;;;;;8.18;2.10;;;;;;;20.69;43.30;100491.59;10294336;28;20174;-78
2023/04/10 10:50:01;;;;;;;8.32;2.63;;;;;;;20.57;42.50;100485.34;10294864;28;20181;-81
2023/04/10 10:55:23;;;;;;;7.60;2.42;;;;;;;20.53;43.97;100487.69;10293853;28;20177;-79
2023/04/10 11:00:26;;;;;;;8.80;2.57;;;;;;;20.79;42.28;100442.44;10293582;28;20062;-80
2023/04/10 11:06:07;;;;;;;6.10;2.53;;;;;;;21.16;40.37;100459.25;10294188;28;20455;-79
2023/04/10 11:11:11;;;;;;;7.63;2.53;;;;;;;21.02;40.41;100469.47;10249280;28;20070;-80
2023/04/10 11:16:12;;;;;;;11.07;2.72;;;;;;;20.54;42.32;100423.75;10283670;28;20051;-81
2023/04/10 11:21:16;;;;;;;7.13;2.22;;;;;;;21.14;41.61;100442.47;10293318;28;20039;-81
2023/04/10 11:26:35;;;;;;;9.65;2.53;;;;;;;21.71;40.06;100442.63;10293236;28;20043;-80
2023/04/10 11:31:36;;;;;;;8.88;2.33;;;;;;;21.69;40.48;100436.66;10292618;28;20503;-81
2023/04/10 11:36:39;;;;;;;7.72;1.88;;;;;;;21.17;39.45;100404.16;10293026;28;20129;-80
2023/04/10 11:41:42;;;;;;;9.85;2.50;;;;;;;21.32;40.12;100428.81;10293190;28;20054;-81
2023/04/10 11:46:49;;;;;;;8.75;2.22;;;;;;;21.33;38.95;100411.56;10291328;28;20395;-79
2023/04/10 11:51:51;;;;;;;9.02;2.35;;;;;;;20.86;39.75;100395.38;10321250;28;20050;-82
2023/04/10 11:57:07;;;;;;;13.45;2.35;;;;;;;21.14;40.39;100400.06;10331629;28;20058;-79
2023/04/10 12:02:13;;;;;;;10.68;2.10;;;;;;;21.00;40.16;100385.16;10332417;28;20069;-81
2023/04/10 12:07:14;;;;;;;9.68;2.47;;;;;;;20.62;40.23;100397.25;10332175;28;20038;-81
2023/04/10 12:12:15;;;;;;;7.20;1.80;;;;;;;20.24;40.95;100371.44;10331601;28;20038;-80
2023/04/10 12:17:16;;;;;;;8.40;1.80;;;;;;;20.39;40.37;100391.75;10332026;28;20133;-79
2023/04/10 12:22:17;;;;;;;8.43;1.95;;;;;;;20.25;40.07;100356.91;10331215;28;20129;-78
2023/04/10 12:27:25;;;;;;;7.65;1.50;;;;;;;20.83;40.00;100385.03;10331011;28;20030;-81
2023/04/10 12:32:26;;;;;;;7.50;1.77;;;;;;;20.67;40.13;100366.81;10331086;28;20125;-82
2023/04/10 12:37:50;;;;;;;11.20;1.92;;;;;;;20.96;40.26;100379.41;10354806;28;20034;-81
2023/04/10 12:42:50;;;;;;;;;;;;;;;21.07;39.30;100376.94;10348994;28;20050;-76
2023/04/10 12:47:52;;;;;;;7.78;1.90;;;;;;;20.63;38.74;100371.06;10333369;28;19933;-79
2023/04/10 12:53:07;;;;;;;9.98;2.03;;;;;;;20.57;38.89;100356.63;10326311;28;20049;-80
2023/04/10 12:58:26;;;;;;;7.25;1.85;;;;;;;20.68;38.41;100357.69;10329676;28;20054;-76
2023/04/10 13:03:27;;;;;;;11.70;2.05;;;;;;;20.64;39.01;100364.59;10355306;28;20054;-79
2023/04/10 13:11:30;;;;;;;7.13;2.00;;;;;;;20.42;40.55;100299.56;10503676;28;20434;-78
2023/04/10 13:16:31;;;;;;;5.00;1.85;;;;;;;20.36;39.55;100352.56;10531741;28;20098;-78
2023/04/10 13:21:32;;;;;;;8.48;2.70;;;;;;;19.84;40.31;100350.44;10530633;28;20087;-79
2023/04/10 13:26:33;;;;;;;7.03;2.40;;;;;;;20.02;41.45;100346.88;10508710;28;20041;-80
2023/04/10 13:31:33;;;;;;;8.52;2.30;;;;;;;19.58;41.64;100292.31;10507895;28;20032;-80
2023/04/10 13:36:34;;;;;;;6.55;1.88;;;;;;;19.82;41.72;100362.50;10522011;28;20051;-81
2023/04/10 13:41:35;;;;;;;9.27;2.50;;;;;;;19.59;42.04;100350.56;10489041;28;20124;-79
2023/04/10 13:46:35;;;;;;;9.73;2.22;;;;;;;19.09;42.00;100253.81;10489141;28;20070;-79
2023/04/10 13:51:36;;;;;;;10.30;2.33;;;;;;;19.74;41.92;100362.81;10493405;28;20036;-79
2023/04/10 13:56:37;;;;;;;10.65;2.40;;;;;;;19.47;42.43;100356.91;10507770;28;20048;-80
2023/04/10 14:01:38;;;;;;;8.93;2.10;;;;;;;19.32;43.18;100363.50;10531483;28;20056;-80
2023/04/10 14:06:39;;;;;;;7.85;1.90;;;;;;;19.06;43.75;100348.50;10530435;28;20070;-79
2023/04/10 14:11:40;;;;;;;9.27;2.20;;;;;;;18.93;44.09;100338.69;10530169;28;20070;-79
2023/04/10 14:16:41;;;;;;;10.48;2.33;;;;;;;19.00;44.66;100351.25;10530423;28;20132;-81
2023/04/10 14:21:43;;;;;;;11.13;2.17;;;;;;;18.28;44.81;100243.25;10507468;28;20044;-80
2023/04/10 14:26:44;;;;;;;8.13;2.38;;;;;;;18.76;45.38;100336.81;10490508;28;20404;-76
2023/04/10 14:31:45;;;;;;;18.98;3.60;;;;;;;18.72;45.59;100336.38;10488803;28;20049;-83
2023/04/10 14:36:45;;;;;;;15.02;3.40;;;;;;;18.56;45.68;100331.56;10454510;28;20123;-86
2023/04/10 14:41:46;;;;;;;13.98;3.63;;;;;;;17.82;46.15;100237.22;10440502;28;20042;-83
2023/04/10 14:46:47;;;;;;;15.38;2.97;;;;;;;18.13;46.50;100310.81;10418666;28;20033;-82
2023/04/10 14:51:49;;;;;;;9.57;2.60;;;;;;;17.95;46.78;100304.31;10416864;28;20095;-80
2023/04/10 14:56:50;;;;;;;14.00;2.70;;;;;;;17.85;47.43;100309.34;10417906;28;20045;-81
2023/04/10 15:01:52;;;;;;;18.13;2.65;;;;;;;17.32;47.81;100248.69;10444279;28;20045;-81
2023/04/10 15:06:53;;;;;;;9.02;2.10;;;;;;;17.66;47.99;100337.94;10459093;28;20412;-82
2023/04/10 15:11:55;;;;;;;18.73;2.80;;;;;;;17.32;48.46;100286.28;10482907;28;20055;-81
2023/04/10 15:16:56;;;;;;;12.98;2.78;;;;;;;17.32;49.11;100312.28;10458238;28;20090;-84
2023/04/10 15:21:57;;;;;;;17.92;3.03;;;;;;;17.15;49.94;100303.88;10484147;28;20044;-82
2023/04/10 15:26:57;;;;;;;15.80;3.17;;;;;;;16.88;50.14;100298.59;10473639;28;20119;-79
2023/04/10 15:31:59;;;;;;;25.40;3.63;;;;;;;16.85;51.20;100317.78;10498026;28;20522;-82
2023/04/10 15:37:00;;;;;;;22.23;3.22;;;;;;;16.17;51.61;100236.78;10498279;28;20385;-80
2023/04/10 15:42:03;;;;;;;18.20;3.15;;;;;;;16.29;52.21;100290.59;10496661;28;20044;-86
2023/04/10 15:47:04;;;;;;;13.80;3.00;;;;;;;15.84;52.86;100253.69;10467850;28;20044;-81
2023/04/10 15:52:06;;;;;;;19.15;2.80;;;;;;;16.06;53.49;100326.66;10457606;28;20048;-81
2023/04/10 15:57:06;;;;;;;20.83;2.92;;;;;;;15.82;54.24;100320.00;10456800;28;20566;-85
2023/04/10 16:02:07;;;;;;;22.40;3.80;;;;;;;15.62;54.51;100316.47;10463399;28;20174;-78
2023/04/10 16:07:08;;;;;;;22.35;3.25;;;;;;;15.61;54.78;100328.19;10486198;28;20492;-80
2023/04/10 16:12:10;;;;;;;21.00;3.25;;;;;;;15.42;55.31;100327.09;10481109;28;20515;-81
2023/04/10 16:17:11;;;;;;;16.60;3.22;;;;;;;15.16;55.63;100306.38;10487821;28;20125;-81
2023/04/10 16:22:11;;;;;;;22.15;3.13;;;;;;;15.12;56.44;100327.38;10484384;28;20569;-81
2023/04/10 16:27:12;;;;;;;29.58;3.95;;;;;;;14.96;56.75;100320.50;10497072;28;20039;-81
2023/04/10 16:32:13;;;;;;;40.67;4.32;;;;;;;14.61;56.97;100304.44;10472519;28;20044;-80
2023/04/10 16:37:14;;;;;;;24.05;3.70;;;;;;;14.36;57.55;100281.81;10488964;28;20050;-81
2023/04/10 16:42:14;;;;;;;33.00;4.10;;;;;;;14.57;57.68;100342.47;10471010;28;20068;-79
2023/04/10 16:47:15;;;;;;;29.73;3.45;;;;;;;14.32;57.95;100317.94;10466061;28;20044;-81
2023/04/10 16:52:16;;;;;;;56.92;4.15;;;;;;;13.82;58.26;100252.97;10464461;28;20036;-79
2023/04/10 16:57:17;;;;;;;40.45;3.92;;;;;;;14.18;58.64;100337.53;10462825;28;20049;-80
2023/04/10 17:02:17;;;;;;;37.70;3.92;;;;;;;14.04;58.91;100333.94;10469299;28;20119;-77
2023/04/10 17:07:18;;;;;;;34.10;5.60;;;;;;;13.92;59.57;100352.31;10483004;28;20763;-78
2023/04/10 17:12:19;;;;;;;39.53;5.35;;;;;;;13.07;60.38;100228.34;10475154;28;20052;-80
2023/04/10 17:17:19;;;;;;;39.22;4.32;;;;;;;13.65;60.48;100329.84;10453036;28;20037;-79
2023/04/10 17:22:22;;;;;;;34.65;4.35;;;;;;;13.52;61.15;100335.88;10461180;28;20094;-81
2023/04/10 17:27:22;;;;;;;22.45;3.08;;;;;;;13.49;61.58;100344.25;10475697;28;20040;-80
2023/04/10 17:32:23;;;;;;;27.50;3.45;;;;;;;13.06;62.53;100287.22;10465565;28;20500;-80
2023/04/10 17:37:24;;;;;;;25.05;3.72;;;;;;;13.10;62.89;100313.34;10465492;28;20105;-81
2023/04/10 17:42:26;;;;;;;19.00;2.85;;;;;;;13.02;63.46;100319.59;10470618;28;20057;-84
2023/04/10 17:47:26;;;;;;;24.83;4.88;;;;;;;12.86;64.11;100311.75;10461589;28;20444;-80
2023/04/10 17:52:27;;;;;;;23.95;4.00;;;;;;;12.88;65.60;100347.06;10495035;28;20044;-80
2023/04/10 17:57:28;;;;;;;17.10;2.80;;;;;;;12.36;65.73;100286.66;10497811;28;20405;-80
2023/04/10 18:02:29;;;;;;;10.30;2.20;;;;;;;12.58;66.50;100343.53;10492967;28;20545;-79
2023/04/10 18:07:29;;;;;;;18.60;2.20;;;;;;;12.00;67.14;100271.31;10482150;28;20055;-80
2023/04/10 18:12:30;;;;;;;9.38;1.92;;;;;;;11.49;67.75;100193.03;10474152;28;20051;-78
2023/04/10 18:17:31;;;;;;;8.00;2.20;;;;;;;12.23;68.16;100334.34;10481305;28;20096;-81
2023/04/10 18:22:32;;;;;;;8.65;2.05;;;;;;;11.17;68.67;100174.44;10468444;28;20103;-81
2023/04/10 18:27:34;;;;;;;13.10;2.22;;;;;;;11.59;69.20;100252.13;10471070;28;20048;-80
2023/04/10 18:32:36;;;;;;;9.00;2.10;;;;;;;11.80;69.87;100308.19;10477563;28;20044;-80
2023/04/10 18:37:39;;;;;;;7.57;2.05;;;;;;;10.95;70.41;100180.56;10469827;28;20040;-82
2023/04/10 18:42:40;;;;;;;9.23;2.22;;;;;;;11.60;70.93;100302.50;10481538;28;20049;-80
2023/04/10 18:47:41;;;;;;;11.27;2.35;;;;;;;11.62;71.45;100320.94;10461076;28;20060;-79
2023/04/10 18:52:41;;;;;;;7.38;2.05;;;;;;;11.16;72.07;100259.69;10476672;28;20119;-82
2023/04/10 18:57:42;;;;;;;9.00;2.53;;;;;;;11.36;73.05;100311.44;10500821;28;20056;-79
2023/04/10 19:02:43;;;;;;;11.00;2.42;;;;;;;11.25;73.88;100298.53;10488234;28;20045;-79
2023/04/10 19:07:44;;;;;;;9.07;2.60;;;;;;;11.28;74.12;100297.38;10484937;28;20152;-80
2023/04/10 19:12:44;;;;;;;7.75;2.47;;;;;;;11.26;74.68;100289.56;10494228;28;20108;-80
2023/04/10 19:17:45;;;;;;;10.40;2.83;;;;;;;11.12;75.64;100255.72;10472012;28;20055;-79
2023/04/10 19:22:46;;;;;;;6.72;3.00;;;;;;;11.29;76.90;100285.72;10492075;28;20046;-79
2023/04/10 19:27:47;;;;;;;13.25;3.30;;;;;;;10.92;76.79;100220.78;10498979;28;20048;-80
2023/04/10 19:32:48;;;;;;;9.95;3.13;;;;;;;11.35;76.74;100285.84;10485330;28;20043;-80
2023/04/10 19:37:48;;;;;;;10.88;3.35;;;;;;;11.30;76.55;100258.13;10498270;28;20079;-81
2023/04/10 19:42:49;;;;;;;11.20;3.10;;;;;;;11.45;76.54;100274.97;10499187;28;20135;-81
2023/04/10 19:47:50;;;;;;;9.52;3.28;;;;;;;11.48;76.96;100263.16;10498960;28;20097;-82
2023/04/10 19:52:51;;;;;;;7.85;2.78;;;;;;;11.48;76.70;100271.16;10492326;28;20048;-81
2023/04/10 19:57:52;;;;;;;13.63;3.22;;;;;;;11.45;76.51;100263.53;10490768;28;20043;-82
2023/04/10 20:02:52;;;;;;;12.05;3.72;;;;;;;11.41;77.37;100255.06;10498061;28;20032;-82
2023/04/10 20:07:54;;;;;;;9.32;2.85;;;;;;;11.24;77.21;100221.59;10497870;28;20052;-82
2023/04/10 20:12:55;;;;;;;9.60;2.45;;;;;;;10.78;77.17;100141.78;10497416;28;20041;-80
2023/04/10 20:17:56;;;;;;;12.60;2.78;;;;;;;10.74;78.06;100134.16;10495595;28;20036;-81
2023/04/10 20:22:57;;;;;;;8.35;2.80;;;;;;;11.05;78.56;100191.78;10496766;28;20403;-81
2023/04/10 20:28:00;;;;;;;7.68;2.80;;;;;;;11.26;79.02;100228.38;10496779;28;20123;-83
2023/04/10 20:33:03;;;;;;;6.07;2.75;;;;;;;11.31;79.19;100238.53;10496323;28;20127;-81
2023/04/10 20:38:04;;;;;;;10.95;3.30;;;;;;;10.16;79.97;100057.53;10496987;28;20534;-81
2023/04/10 20:43:12;;;;;;;11.63;3.17;;;;;;;11.17;80.49;100213.50;10496775;28;20040;-81
2023/04/10 20:48:13;;;;;;;14.48;3.17;;;;;;;11.06;81.21;100184.63;10495611;28;20513;-81
2023/04/10 20:53:15;;;;;;;13.15;2.92;;;;;;;11.11;82.55;100190.25;10496473;28;20051;-81
2023/04/10 20:58:16;;;;;;;8.82;3.35;;;;;;;11.02;82.15;100178.03;10495131;28;20068;-82
2023/04/10 21:03:17;;;;;;;6.32;2.92;;;;;;;11.11;82.79;100191.09;10496315;28;20064;-81
2023/04/10 21:08:18;;;;;;;7.53;3.30;;;;;;;11.07;84.69;100180.97;10496117;28;20071;-81
2023/04/10 21:13:18;;;;;;;10.48;3.40;;;;;;;11.06;85.00;100168.69;10496639;28;20041;-81
2023/04/10 21:18:19;;;;;;;10.65;3.63;;;;;;;10.97;87.05;100159.94;10482260;28;20040;-80
2023/04/10 21:23:20;;;;;;;9.50;3.42;;;;;;;10.90;87.93;100169.63;10495371;28;20619;-81
2023/04/10 21:28:21;;;;;;;11.63;3.80;;;;;;;10.43;88.20;100102.25;10495698;28;20045;-82
2023/04/10 21:33:22;;;;;;;7.93;3.13;;;;;;;10.91;90.24;100180.06;10503317;28;20074;-81
2023/04/10 21:38:22;;;;;;;10.90;3.25;;;;;;;10.73;89.14;100147.59;10503386;28;20044;-81
2023/04/10 21:43:23;;;;;;;14.70;4.20;;;;;;;10.62;90.61;100124.94;10503551;28;20150;-82
2023/04/10 21:48:24;;;;;;;12.30;3.88;;;;;;;10.85;90.83;100153.34;10502757;28;20048;-83
2023/04/10 21:53:25;;;;;;;10.00;4.15;;;;;;;10.33;92.12;100068.97;10502155;28;20177;-81
2023/04/10 21:58:25;;;;;;;12.80;4.43;;;;;;;10.73;92.52;100131.66;10502752;28;20081;-84
2023/04/10 22:03:28;;;;;;;12.07;4.03;;;;;;;10.78;93.44;100145.25;10502555;28;20036;-82
2023/04/10 22:08:29;;;;;;;12.90;4.63;;;;;;;10.22;94.43;100062.16;10502399;28;20507;-82
2023/04/10 22:13:31;;;;;;;9.77;4.20;;;;;;;10.47;95.48;100106.22;10501668;28;20131;-82
2023/04/10 22:18:32;;;;;;;11.77;4.65;;;;;;;10.36;95.28;100098.66;10492209;28;20037;-81
2023/04/10 22:23:33;;;;;;;10.98;4.25;;;;;;;10.27;95.07;100081.09;10470720;28;20043;-82
2023/04/10 22:28:34;;;;;;;10.88;4.45;;;;;;;9.85;94.82;100017.69;10501645;28;20220;-84
2023/04/10 22:33:36;;;;;;;14.52;4.13;;;;;;;10.55;95.73;100131.91;10501458;28;20052;-82
2023/04/10 22:38:37;;;;;;;15.98;4.43;;;;;;;10.54;96.16;100124.13;10501359;28;20043;-82
2023/04/10 22:43:41;;;;;;;18.42;5.18;;;;;;;10.15;96.53;100071.81;10501080;28;20071;-82
2023/04/10 22:48:42;;;;;;;13.85;4.50;;;;;;;10.45;97.80;100118.84;10500259;28;20076;-83
2023/04/10 22:53:42;;;;;;;16.25;4.55;;;;;;;10.40;97.99;100109.75;10500866;28;20043;-80
2023/04/10 22:58:43;;;;;;;17.23;4.55;;;;;;;10.21;97.99;100092.38;10499912;28;20070;-80
2023/04/10 23:03:44;;;;;;;9.80;4.93;;;;;;;10.33;99.03;100114.91;10444284;28;20160;-81